Hope Valley, California
Current Conditions -  °F | °C
As of 5:53 PM on Friday 24 Oct 2014 (Local Time) from KTVL Reporting Station
Clear Clear  
Wind Chill: 64°   Ceiling: Unl
Heat Index: 64°   Visibility: 10mi
Dew Point: 19°   Wind: 17mph
Humidity: 18%   Direction: 210°SSW
Pressure: 30.05"   Gusts: 26mph
Location:  38.6924°N, 119.835°W
Report Text: KTVL 250053Z AUTO 21015G23KT 10SM CLR 18/M07 A3005 RMK AO2 PK WND 19029/0027 SLP145 T01781072
Loading
Personal Weather Stations






























Interactive Weather Map
Tropical Storm Tracking
New forecast layout! Learn more

10-Day Weather Forecast

Advertisements
Track Severe Weather on mobile